sensor_id;sensor_type;location;lat;lon;timestamp;temperature;humidity
59999;DHT22;45859;51.378;6.736;2023-01-20T00:02:06;1.10;99.90
59999;DHT22;45859;51.378;6.736;2023-01-20T00:04:32;1.20;99.90
59999;DHT22;45859;51.378;6.736;2023-01-20T00:06:57;1.20;99.90
59999;DHT22;45859;51.378;6.736;2023-01-20T00:09:23;1.20;99.90
59999;DHT22;45859;51.378;6.736;2023-01-20T00:11:48;1.30;99.90
59999;DHT22;45859;51.378;6.736;2023-01-20T00:14:15;1.30;99.90
59999;DHT22;45859;51.378;6.736;2023-01-20T00:16:41;1.30;99.90
59999;DHT22;45859;51.378;6.736;2023-01-20T00:19:08;1.40;99.90
59999;DHT22;45859;51.378;6.736;2023-01-20T00:21:33;1.50;99.90
59999;DHT22;45859;51.378;6.736;2023-01-20T00:23:59;1.50;99.90
59999;DHT22;45859;51.378;6.736;2023-01-20T00:26:25;1.60;99.90
59999;DHT22;45859;51.378;6.736;2023-01-20T00:28:55;1.60;99.90
59999;DHT22;45859;51.378;6.736;2023-01-20T00:31:24;1.70;99.90
59999;DHT22;45859;51.378;6.736;2023-01-20T00:33:51;1.70;99.90
59999;DHT22;45859;51.378;6.736;2023-01-20T00:36:19;1.70;99.90
59999;DHT22;45859;51.378;6.736;2023-01-20T00:38:45;1.70;99.90
59999;DHT22;45859;51.378;6.736;2023-01-20T00:41:11;1.70;99.90
59999;DHT22;45859;51.378;6.736;2023-01-20T00:43:37;1.80;99.90
59999;DHT22;45859;51.378;6.736;2023-01-20T00:46:04;1.80;99.90
59999;DHT22;45859;51.378;6.736;2023-01-20T00:48:29;1.80;99.90
59999;DHT22;45859;51.378;6.736;2023-01-20T00:50:55;1.80;99.90
59999;DHT22;45859;51.378;6.736;2023-01-20T00:53:21;1.80;99.90
59999;DHT22;45859;51.378;6.736;2023-01-20T00:55:47;1.80;99.90
59999;DHT22;45859;51.378;6.736;2023-01-20T00:58:13;1.80;99.90
59999;DHT22;45859;51.378;6.736;2023-01-20T01:00:38;1.80;99.90
59999;DHT22;45859;51.378;6.736;2023-01-20T01:03:04;1.80;99.90
59999;DHT22;45859;51.378;6.736;2023-01-20T01:05:30;1.80;99.90
59999;DHT22;45859;51.378;6.736;2023-01-20T01:07:56;1.80;99.90
59999;DHT22;45859;51.378;6.736;2023-01-20T01:10:22;1.80;99.90
59999;DHT22;45859;51.378;6.736;2023-01-20T01:12:48;1.80;99.90
59999;DHT22;45859;51.378;6.736;2023-01-20T01:15:14;1.80;99.90
59999;DHT22;45859;51.378;6.736;2023-01-20T01:17:41;1.80;99.90
59999;DHT22;45859;51.378;6.736;2023-01-20T01:20:09;1.80;99.90
59999;DHT22;45859;51.378;6.736;2023-01-20T01:22:35;1.80;99.90
59999;DHT22;45859;51.378;6.736;2023-01-20T01:25:00;1.80;99.90
59999;DHT22;45859;51.378;6.736;2023-01-20T01:27:27;1.80;99.90
59999;DHT22;45859;51.378;6.736;2023-01-20T01:29:53;1.70;99.90
59999;DHT22;45859;51.378;6.736;2023-01-20T01:32:18;1.80;99.90
59999;DHT22;45859;51.378;6.736;2023-01-20T01:34:45;1.80;99.90
59999;DHT22;45859;51.378;6.736;2023-01-20T01:37:10;1.80;99.90
59999;DHT22;45859;51.378;6.736;2023-01-20T01:39:36;1.70;99.90
59999;DHT22;45859;51.378;6.736;2023-01-20T01:42:01;1.80;99.90
59999;DHT22;45859;51.378;6.736;2023-01-20T01:44:27;1.80;99.90
59999;DHT22;45859;51.378;6.736;2023-01-20T01:46:53;1.80;99.90
59999;DHT22;45859;51.378;6.736;2023-01-20T01:49:25;1.70;99.90
59999;DHT22;45859;51.378;6.736;2023-01-20T01:52:00;1.70;99.90
59999;DHT22;45859;51.378;6.736;2023-01-20T01:54:29;1.80;99.90
59999;DHT22;45859;51.378;6.736;2023-01-20T01:56:57;1.80;99.90
59999;DHT22;45859;51.378;6.736;2023-01-20T01:59:23;1.70;99.90
59999;DHT22;45859;51.378;6.736;2023-01-20T02:01:51;1.70;99.90
59999;DHT22;45859;51.378;6.736;2023-01-20T02:04:19;1.70;99.90
59999;DHT22;45859;51.378;6.736;2023-01-20T02:06:55;1.60;99.90
59999;DHT22;45859;51.378;6.736;2023-01-20T02:09:23;1.70;99.90
59999;DHT22;45859;51.378;6.736;2023-01-20T02:11:57;1.70;99.90
59999;DHT22;45859;51.378;6.736;2023-01-20T02:14:34;1.70;99.90
59999;DHT22;45859;51.378;6.736;2023-01-20T02:34:07;1.60;99.90
59999;DHT22;45859;51.378;6.736;2023-01-20T02:36:53;1.60;99.90
59999;DHT22;45859;51.378;6.736;2023-01-20T02:39:31;1.60;99.90
59999;DHT22;45859;51.378;6.736;2023-01-20T02:42:08;1.50;99.90
59999;DHT22;45859;51.378;6.736;2023-01-20T02:47:23;1.60;99.90
59999;DHT22;45859;51.378;6.736;2023-01-20T02:49:57;1.60;99.90
59999;DHT22;45859;51.378;6.736;2023-01-20T02:52:31;1.50;99.90
59999;DHT22;45859;51.378;6.736;2023-01-20T02:55:05;1.50;99.90
59999;DHT22;45859;51.378;6.736;2023-01-20T02:57:39;1.50;99.90
59999;DHT22;45859;51.378;6.736;2023-01-20T03:00:22;1.60;99.90
59999;DHT22;45859;51.378;6.736;2023-01-20T03:02:52;1.60;99.90
59999;DHT22;45859;51.378;6.736;2023-01-20T03:05:28;1.50;99.90
59999;DHT22;45859;51.378;6.736;2023-01-20T03:07:54;1.60;99.90
59999;DHT22;45859;51.378;6.736;2023-01-20T03:10:24;1.50;99.90
59999;DHT22;45859;51.378;6.736;2023-01-20T03:12:57;1.60;99.90
59999;DHT22;45859;51.378;6.736;2023-01-20T03:15:29;1.60;99.90
59999;DHT22;45859;51.378;6.736;2023-01-20T03:17:57;1.60;99.90
59999;DHT22;45859;51.378;6.736;2023-01-20T03:20:23;1.60;99.90
59999;DHT22;45859;51.378;6.736;2023-01-20T03:22:49;1.50;99.90
59999;DHT22;45859;51.378;6.736;2023-01-20T03:25:15;1.50;99.90
59999;DHT22;45859;51.378;6.736;2023-01-20T03:27:42;1.50;99.90
59999;DHT22;45859;51.378;6.736;2023-01-20T03:30:15;1.50;99.90
59999;DHT22;45859;51.378;6.736;2023-01-20T03:32:43;1.50;99.90
59999;DHT22;45859;51.378;6.736;2023-01-20T03:35:13;1.50;99.90
59999;DHT22;45859;51.378;6.736;2023-01-20T03:37:41;1.50;99.90
59999;DHT22;45859;51.378;6.736;2023-01-20T03:40:07;1.50;99.90
59999;DHT22;45859;51.378;6.736;2023-01-20T03:42:44;1.60;99.90
59999;DHT22;45859;51.378;6.736;2023-01-20T03:53:04;1.60;99.90
59999;DHT22;45859;51.378;6.736;2023-01-20T03:55:41;1.60;99.90
59999;DHT22;45859;51.378;6.736;2023-01-20T03:58:13;1.60;99.90
59999;DHT22;45859;51.378;6.736;2023-01-20T04:00:43;1.70;99.90
59999;DHT22;45859;51.378;6.736;2023-01-20T04:03:15;1.70;99.90
59999;DHT22;45859;51.378;6.736;2023-01-20T04:05:43;1.70;99.90
59999;DHT22;45859;51.378;6.736;2023-01-20T04:08:12;1.70;99.90
59999;DHT22;45859;51.378;6.736;2023-01-20T04:10:40;1.60;99.90
59999;DHT22;45859;51.378;6.736;2023-01-20T04:13:07;1.60;99.90
59999;DHT22;45859;51.378;6.736;2023-01-20T04:15:41;1.60;99.90
59999;DHT22;45859;51.378;6.736;2023-01-20T04:18:20;1.60;99.90
59999;DHT22;45859;51.378;6.736;2023-01-20T04:21:09;1.50;99.90
59999;DHT22;45859;51.378;6.736;2023-01-20T04:23:39;1.50;99.90
59999;DHT22;45859;51.378;6.736;2023-01-20T04:26:06;1.60;99.90
59999;DHT22;45859;51.378;6.736;2023-01-20T04:28:32;1.60;99.90
59999;DHT22;45859;51.378;6.736;2023-01-20T04:30:58;1.60;99.90
59999;DHT22;45859;51.378;6.736;2023-01-20T04:33:23;1.60;99.90
59999;DHT22;45859;51.378;6.736;2023-01-20T04:35:49;1.60;99.90
59999;DHT22;45859;51.378;6.736;2023-01-20T04:38:15;1.60;99.90
59999;DHT22;45859;51.378;6.736;2023-01-20T04:40:41;1.60;99.90
59999;DHT22;45859;51.378;6.736;2023-01-20T04:43:06;1.60;99.90
59999;DHT22;45859;51.378;6.736;2023-01-20T04:45:34;1.60;99.90
59999;DHT22;45859;51.378;6.736;2023-01-20T04:48:00;1.80;99.90
59999;DHT22;45859;51.378;6.736;2023-01-20T04:50:29;1.50;99.90
59999;DHT22;45859;51.378;6.736;2023-01-20T04:52:55;1.50;99.90
59999;DHT22;45859;51.378;6.736;2023-01-20T04:55:20;1.40;99.90
59999;DHT22;45859;51.378;6.736;2023-01-20T04:57:46;1.40;99.90
59999;DHT22;45859;51.378;6.736;2023-01-20T05:00:12;1.40;99.90
59999;DHT22;45859;51.378;6.736;2023-01-20T05:02:44;1.40;99.90
59999;DHT22;45859;51.378;6.736;2023-01-20T05:05:10;1.40;99.90
59999;DHT22;45859;51.378;6.736;2023-01-20T05:07:36;1.50;99.90
59999;DHT22;45859;51.378;6.736;2023-01-20T05:10:01;1.40;99.90
59999;DHT22;45859;51.378;6.736;2023-01-20T05:12:27;1.50;99.90
59999;DHT22;45859;51.378;6.736;2023-01-20T05:14:53;1.40;99.90
59999;DHT22;45859;51.378;6.736;2023-01-20T05:17:18;1.50;99.90
59999;DHT22;45859;51.378;6.736;2023-01-20T05:19:44;1.50;99.90
59999;DHT22;45859;51.378;6.736;2023-01-20T05:22:10;1.50;99.90
59999;DHT22;45859;51.378;6.736;2023-01-20T05:24:36;1.50;99.90
59999;DHT22;45859;51.378;6.736;2023-01-20T05:27:02;1.50;99.90
59999;DHT22;45859;51.378;6.736;2023-01-20T05:29:28;1.50;99.90
59999;DHT22;45859;51.378;6.736;2023-01-20T05:31:54;1.50;99.90
59999;DHT22;45859;51.378;6.736;2023-01-20T05:34:20;1.50;99.90
59999;DHT22;45859;51.378;6.736;2023-01-20T05:36:49;1.60;99.90
59999;DHT22;45859;51.378;6.736;2023-01-20T05:39:15;1.50;99.90
59999;DHT22;45859;51.378;6.736;2023-01-20T05:41:41;1.50;99.90
59999;DHT22;45859;51.378;6.736;2023-01-20T05:44:07;1.50;99.90
59999;DHT22;45859;51.378;6.736;2023-01-20T05:46:33;1.40;99.90
59999;DHT22;45859;51.378;6.736;2023-01-20T05:48:59;1.40;99.90
59999;DHT22;45859;51.378;6.736;2023-01-20T05:51:24;1.40;99.90
59999;DHT22;45859;51.378;6.736;2023-01-20T05:53:50;1.40;99.90
59999;DHT22;45859;51.378;6.736;2023-01-20T05:56:16;1.40;99.90
59999;DHT22;45859;51.378;6.736;2023-01-20T05:58:41;1.40;99.90
59999;DHT22;45859;51.378;6.736;2023-01-20T06:01:10;1.40;99.90
59999;DHT22;45859;51.378;6.736;2023-01-20T06:03:36;1.40;99.90
59999;DHT22;45859;51.378;6.736;2023-01-20T06:06:08;1.30;99.90
59999;DHT22;45859;51.378;6.736;2023-01-20T06:08:38;1.30;99.90
59999;DHT22;45859;51.378;6.736;2023-01-20T06:11:04;1.30;99.90
59999;DHT22;45859;51.378;6.736;2023-01-20T06:13:30;1.30;99.90
59999;DHT22;45859;51.378;6.736;2023-01-20T06:15:55;1.30;99.90
59999;DHT22;45859;51.378;6.736;2023-01-20T06:18:23;1.30;99.90
59999;DHT22;45859;51.378;6.736;2023-01-20T06:20:49;1.30;99.90
59999;DHT22;45859;51.378;6.736;2023-01-20T06:23:15;1.30;99.90
59999;DHT22;45859;51.378;6.736;2023-01-20T06:25:41;1.30;99.90
59999;DHT22;45859;51.378;6.736;2023-01-20T06:28:07;1.40;99.90
59999;DHT22;45859;51.378;6.736;2023-01-20T06:30:36;1.30;99.90
59999;DHT22;45859;51.378;6.736;2023-01-20T06:33:02;1.30;99.90
59999;DHT22;45859;51.378;6.736;2023-01-20T06:35:33;1.40;99.90
59999;DHT22;45859;51.378;6.736;2023-01-20T06:37:58;1.40;99.90
59999;DHT22;45859;51.378;6.736;2023-01-20T06:40:24;1.40;99.90
59999;DHT22;45859;51.378;6.736;2023-01-20T06:42:50;1.30;99.90
59999;DHT22;45859;51.378;6.736;2023-01-20T06:45:15;1.30;99.90
59999;DHT22;45859;51.378;6.736;2023-01-20T06:47:41;1.40;99.90
59999;DHT22;45859;51.378;6.736;2023-01-20T06:50:07;1.40;99.90
59999;DHT22;45859;51.378;6.736;2023-01-20T06:52:33;1.40;99.90
59999;DHT22;45859;51.378;6.736;2023-01-20T06:54:59;1.50;99.90
59999;DHT22;45859;51.378;6.736;2023-01-20T06:57:24;1.40;99.90
59999;DHT22;45859;51.378;6.736;2023-01-20T06:59:50;1.50;99.90
59999;DHT22;45859;51.378;6.736;2023-01-20T07:02:16;1.40;99.90
59999;DHT22;45859;51.378;6.736;2023-01-20T07:04:41;1.40;99.90
59999;DHT22;45859;51.378;6.736;2023-01-20T07:07:10;1.40;99.90
59999;DHT22;45859;51.378;6.736;2023-01-20T07:09:37;1.40;99.90
59999;DHT22;45859;51.378;6.736;2023-01-20T07:12:03;1.50;99.90
59999;DHT22;45859;51.378;6.736;2023-01-20T07:14:28;1.50;99.90
59999;DHT22;45859;51.378;6.736;2023-01-20T07:16:54;1.40;99.90
59999;DHT22;45859;51.378;6.736;2023-01-20T07:19:20;1.40;99.90
59999;DHT22;45859;51.378;6.736;2023-01-20T07:21:45;1.40;99.90
59999;DHT22;45859;51.378;6.736;2023-01-20T07:24:11;1.40;99.90
59999;DHT22;45859;51.378;6.736;2023-01-20T07:26:37;1.50;99.90
59999;DHT22;45859;51.378;6.736;2023-01-20T07:29:02;1.50;99.90
59999;DHT22;45859;51.378;6.736;2023-01-20T07:31:28;1.50;99.90
59999;DHT22;45859;51.378;6.736;2023-01-20T07:33:56;1.50;99.90
59999;DHT22;45859;51.378;6.736;2023-01-20T07:36:22;1.60;99.90
59999;DHT22;45859;51.378;6.736;2023-01-20T07:38:49;1.50;99.90
59999;DHT22;45859;51.378;6.736;2023-01-20T07:41:16;1.50;99.90
59999;DHT22;45859;51.378;6.736;2023-01-20T07:43:45;1.60;99.90
59999;DHT22;45859;51.378;6.736;2023-01-20T07:46:11;1.70;99.90
59999;DHT22;45859;51.378;6.736;2023-01-20T07:48:37;1.50;99.90
59999;DHT22;45859;51.378;6.736;2023-01-20T07:51:06;1.60;99.90
59999;DHT22;45859;51.378;6.736;2023-01-20T07:53:35;1.60;99.90
59999;DHT22;45859;51.378;6.736;2023-01-20T07:56:04;1.50;99.90
59999;DHT22;45859;51.378;6.736;2023-01-20T07:58:30;1.60;99.90
59999;DHT22;45859;51.378;6.736;2023-01-20T08:00:56;1.60;99.90
59999;DHT22;45859;51.378;6.736;2023-01-20T08:03:22;1.60;99.90
59999;DHT22;45859;51.378;6.736;2023-01-20T08:05:48;1.70;99.90
59999;DHT22;45859;51.378;6.736;2023-01-20T08:08:14;1.70;99.90
59999;DHT22;45859;51.378;6.736;2023-01-20T08:10:39;1.70;99.90
59999;DHT22;45859;51.378;6.736;2023-01-20T08:13:05;1.60;99.90
59999;DHT22;45859;51.378;6.736;2023-01-20T08:15:31;1.60;99.90
59999;DHT22;45859;51.378;6.736;2023-01-20T08:17:56;1.70;99.90
59999;DHT22;45859;51.378;6.736;2023-01-20T08:20:24;1.60;99.90
59999;DHT22;45859;51.378;6.736;2023-01-20T08:22:49;1.60;99.90
59999;DHT22;45859;51.378;6.736;2023-01-20T08:25:15;1.60;99.90
59999;DHT22;45859;51.378;6.736;2023-01-20T08:27:41;1.60;99.90
59999;DHT22;45859;51.378;6.736;2023-01-20T08:30:07;1.60;99.90
59999;DHT22;45859;51.378;6.736;2023-01-20T08:32:33;1.60;99.90
59999;DHT22;45859;51.378;6.736;2023-01-20T08:34:59;1.50;99.90
59999;DHT22;45859;51.378;6.736;2023-01-20T08:37:24;1.50;99.90
59999;DHT22;45859;51.378;6.736;2023-01-20T08:39:50;0.90;99.90
59999;DHT22;45859;51.378;6.736;2023-01-20T08:42:16;1.50;99.90
59999;DHT22;45859;51.378;6.736;2023-01-20T08:44:42;1.60;99.90
59999;DHT22;45859;51.378;6.736;2023-01-20T08:47:07;1.60;99.90
59999;DHT22;45859;51.378;6.736;2023-01-20T08:49:33;1.60;99.90
59999;DHT22;45859;51.378;6.736;2023-01-20T08:51:59;1.60;99.90
59999;DHT22;45859;51.378;6.736;2023-01-20T08:54:25;1.60;99.90
59999;DHT22;45859;51.378;6.736;2023-01-20T08:56:51;1.60;99.90
59999;DHT22;45859;51.378;6.736;2023-01-20T08:59:18;1.70;99.90
59999;DHT22;45859;51.378;6.736;2023-01-20T09:01:44;1.60;99.90
59999;DHT22;45859;51.378;6.736;2023-01-20T09:04:10;1.60;99.90
59999;DHT22;45859;51.378;6.736;2023-01-20T09:06:47;1.60;99.90
59999;DHT22;45859;51.378;6.736;2023-01-20T09:09:16;1.60;99.90
59999;DHT22;45859;51.378;6.736;2023-01-20T09:11:42;1.60;99.90
59999;DHT22;45859;51.378;6.736;2023-01-20T09:14:19;1.70;99.90
59999;DHT22;45859;51.378;6.736;2023-01-20T09:16:45;1.60;99.90
59999;DHT22;45859;51.378;6.736;2023-01-20T09:19:11;1.70;99.90
59999;DHT22;45859;51.378;6.736;2023-01-20T09:21:36;1.70;99.90
59999;DHT22;45859;51.378;6.736;2023-01-20T09:24:02;1.70;99.90
59999;DHT22;45859;51.378;6.736;2023-01-20T09:26:28;1.70;99.90
59999;DHT22;45859;51.378;6.736;2023-01-20T09:29:11;0.80;99.90
59999;DHT22;45859;51.378;6.736;2023-01-20T09:31:39;1.70;99.90
59999;DHT22;45859;51.378;6.736;2023-01-20T09:34:09;1.70;99.90
59999;DHT22;45859;51.378;6.736;2023-01-20T09:36:35;1.90;99.90
59999;DHT22;45859;51.378;6.736;2023-01-20T09:39:01;1.90;99.90
59999;DHT22;45859;51.378;6.736;2023-01-20T09:41:47;1.90;99.90
59999;DHT22;45859;51.378;6.736;2023-01-20T09:45:21;2.30;99.90
59999;DHT22;45859;51.378;6.736;2023-01-20T09:47:50;2.00;99.90
59999;DHT22;45859;51.378;6.736;2023-01-20T09:50:52;1.60;99.90
59999;DHT22;45859;51.378;6.736;2023-01-20T09:56:18;2.00;99.90
59999;DHT22;45859;51.378;6.736;2023-01-20T10:01:32;2.10;99.90
59999;DHT22;45859;51.378;6.736;2023-01-20T10:07:00;2.30;99.90
59999;DHT22;45859;51.378;6.736;2023-01-20T10:12:18;2.30;99.90
59999;DHT22;45859;51.378;6.736;2023-01-20T10:14:51;2.40;99.90
59999;DHT22;45859;51.378;6.736;2023-01-20T10:17:29;2.40;99.90
59999;DHT22;45859;51.378;6.736;2023-01-20T10:20:00;2.40;99.90
59999;DHT22;45859;51.378;6.736;2023-01-20T10:22:44;2.50;99.90
59999;DHT22;45859;51.378;6.736;2023-01-20T10:25:26;2.60;99.90
59999;DHT22;45859;51.378;6.736;2023-01-20T10:28:09;2.60;99.90
59999;DHT22;45859;51.378;6.736;2023-01-20T10:30:36;2.60;99.90
59999;DHT22;45859;51.378;6.736;2023-01-20T10:33:09;2.60;99.90
59999;DHT22;45859;51.378;6.736;2023-01-20T10:35:46;2.60;99.90
59999;DHT22;45859;51.378;6.736;2023-01-20T10:40:59;2.70;99.90
59999;DHT22;45859;51.378;6.736;2023-01-20T10:43:27;2.70;99.90
59999;DHT22;45859;51.378;6.736;2023-01-20T10:49:23;2.60;99.90
59999;DHT22;45859;51.378;6.736;2023-01-20T10:52:23;3.30;99.90
59999;DHT22;45859;51.378;6.736;2023-01-20T10:57:39;2.70;99.90
59999;DHT22;45859;51.378;6.736;2023-01-20T11:00:21;2.00;99.90
59999;DHT22;45859;51.378;6.736;2023-01-20T11:02:47;2.60;99.90
59999;DHT22;45859;51.378;6.736;2023-01-20T11:05:19;2.70;99.90
59999;DHT22;45859;51.378;6.736;2023-01-20T11:07:46;2.70;99.90
59999;DHT22;45859;51.378;6.736;2023-01-20T11:10:18;2.70;99.90
59999;DHT22;45859;51.378;6.736;2023-01-20T11:12:47;2.70;99.90
59999;DHT22;45859;51.378;6.736;2023-01-20T11:17:45;3.50;99.90
59999;DHT22;45859;51.378;6.736;2023-01-20T11:20:18;3.10;99.90
59999;DHT22;45859;51.378;6.736;2023-01-20T11:22:47;3.10;99.90
59999;DHT22;45859;51.378;6.736;2023-01-20T11:25:24;3.10;99.90
59999;DHT22;45859;51.378;6.736;2023-01-20T11:27:50;3.10;99.90
59999;DHT22;45859;51.378;6.736;2023-01-20T11:30:27;3.10;99.90
59999;DHT22;45859;51.378;6.736;2023-01-20T11:33:08;3.10;99.90
59999;DHT22;45859;51.378;6.736;2023-01-20T11:35:34;3.10;99.90
59999;DHT22;45859;51.378;6.736;2023-01-20T11:38:25;3.00;99.90
59999;DHT22;45859;51.378;6.736;2023-01-20T11:40:55;3.00;99.90
59999;DHT22;45859;51.378;6.736;2023-01-20T11:43:35;3.00;99.90
59999;DHT22;45859;51.378;6.736;2023-01-20T11:46:23;3.10;99.90
59999;DHT22;45859;51.378;6.736;2023-01-20T11:48:49;3.20;99.90
59999;DHT22;45859;51.378;6.736;2023-01-20T11:51:29;3.10;99.90
59999;DHT22;45859;51.378;6.736;2023-01-20T11:54:06;3.30;99.90
59999;DHT22;45859;51.378;6.736;2023-01-20T11:56:41;4.00;99.90
59999;DHT22;45859;51.378;6.736;2023-01-20T11:59:26;3.20;99.90
59999;DHT22;45859;51.378;6.736;2023-01-20T12:02:14;3.30;99.90
59999;DHT22;45859;51.378;6.736;2023-01-20T12:05:08;3.40;99.90
59999;DHT22;45859;51.378;6.736;2023-01-20T12:07:48;3.40;99.90
59999;DHT22;45859;51.378;6.736;2023-01-20T12:10:26;3.30;99.90
59999;DHT22;45859;51.378;6.736;2023-01-20T12:13:10;3.30;99.90
59999;DHT22;45859;51.378;6.736;2023-01-20T12:15:58;3.20;99.90
59999;DHT22;45859;51.378;6.736;2023-01-20T12:18:32;3.20;99.90
59999;DHT22;45859;51.378;6.736;2023-01-20T12:21:10;3.20;99.90
59999;DHT22;45859;51.378;6.736;2023-01-20T12:24:01;3.20;99.90
59999;DHT22;45859;51.378;6.736;2023-01-20T12:26:33;3.10;99.90
59999;DHT22;45859;51.378;6.736;2023-01-20T12:31:25;3.10;99.90
59999;DHT22;45859;51.378;6.736;2023-01-20T12:34:11;3.00;99.90
59999;DHT22;45859;51.378;6.736;2023-01-20T12:45:41;3.10;99.90
59999;DHT22;45859;51.378;6.736;2023-01-20T13:08:00;3.00;99.90
59999;DHT22;45859;51.378;6.736;2023-01-20T13:16:22;3.20;99.90
59999;DHT22;45859;51.378;6.736;2023-01-20T13:19:05;3.30;99.90
59999;DHT22;45859;51.378;6.736;2023-01-20T13:21:33;3.20;99.90
59999;DHT22;45859;51.378;6.736;2023-01-20T13:24:00;3.20;99.90
59999;DHT22;45859;51.378;6.736;2023-01-20T13:26:29;3.10;99.90
59999;DHT22;45859;51.378;6.736;2023-01-20T13:28:56;3.10;99.90
59999;DHT22;45859;51.378;6.736;2023-01-20T13:39:42;3.10;99.90
59999;DHT22;45859;51.378;6.736;2023-01-20T13:47:51;3.10;99.90
59999;DHT22;45859;51.378;6.736;2023-01-20T13:58:18;3.20;99.90
59999;DHT22;45859;51.378;6.736;2023-01-20T14:00:47;3.10;99.90
59999;DHT22;45859;51.378;6.736;2023-01-20T14:03:29;3.10;99.90
59999;DHT22;45859;51.378;6.736;2023-01-20T14:05:58;3.10;99.90
59999;DHT22;45859;51.378;6.736;2023-01-20T14:08:28;3.10;99.90
59999;DHT22;45859;51.378;6.736;2023-01-20T14:11:15;3.10;99.90
59999;DHT22;45859;51.378;6.736;2023-01-20T14:13:51;3.20;99.90
59999;DHT22;45859;51.378;6.736;2023-01-20T14:16:19;3.10;99.90
59999;DHT22;45859;51.378;6.736;2023-01-20T14:18:46;3.20;99.90
59999;DHT22;45859;51.378;6.736;2023-01-20T14:21:21;3.00;99.90
59999;DHT22;45859;51.378;6.736;2023-01-20T14:23:48;3.10;99.90
59999;DHT22;45859;51.378;6.736;2023-01-20T14:26:26;3.20;99.90
59999;DHT22;45859;51.378;6.736;2023-01-20T14:28:56;3.20;99.90
59999;DHT22;45859;51.378;6.736;2023-01-20T14:36:45;3.20;99.90
59999;DHT22;45859;51.378;6.736;2023-01-20T14:39:21;3.20;99.90
59999;DHT22;45859;51.378;6.736;2023-01-20T14:44:21;3.30;99.90
59999;DHT22;45859;51.378;6.736;2023-01-20T14:46:49;3.20;99.90
59999;DHT22;45859;51.378;6.736;2023-01-20T14:49:17;3.20;99.90
59999;DHT22;45859;51.378;6.736;2023-01-20T14:51:44;3.20;99.90
59999;DHT22;45859;51.378;6.736;2023-01-20T14:54:46;3.10;99.90
59999;DHT22;45859;51.378;6.736;2023-01-20T14:57:24;3.10;99.90
59999;DHT22;45859;51.378;6.736;2023-01-20T15:02:32;3.30;99.90
59999;DHT22;45859;51.378;6.736;2023-01-20T15:05:16;3.00;99.90
59999;DHT22;45859;51.378;6.736;2023-01-20T15:07:42;3.00;99.90
59999;DHT22;45859;51.378;6.736;2023-01-20T15:10:13;3.00;99.90
59999;DHT22;45859;51.378;6.736;2023-01-20T15:15:32;2.40;99.90
59999;DHT22;45859;51.378;6.736;2023-01-20T15:18:20;2.90;99.90
59999;DHT22;45859;51.378;6.736;2023-01-20T15:20:52;2.90;99.90
59999;DHT22;45859;51.378;6.736;2023-01-20T15:23:38;2.90;99.90
59999;DHT22;45859;51.378;6.736;2023-01-20T15:26:28;2.90;99.90
59999;DHT22;45859;51.378;6.736;2023-01-20T15:28:56;2.90;99.90
59999;DHT22;45859;51.378;6.736;2023-01-20T15:31:22;2.90;99.90
59999;DHT22;45859;51.378;6.736;2023-01-20T15:33:48;2.90;99.90
59999;DHT22;45859;51.378;6.736;2023-01-20T15:36:23;3.80;99.90
59999;DHT22;45859;51.378;6.736;2023-01-20T15:38:51;2.90;99.90
59999;DHT22;45859;51.378;6.736;2023-01-20T15:41:17;2.90;99.90
59999;DHT22;45859;51.378;6.736;2023-01-20T15:43:44;2.90;99.90
59999;DHT22;45859;51.378;6.736;2023-01-20T15:46:15;2.90;99.90
59999;DHT22;45859;51.378;6.736;2023-01-20T15:48:41;2.90;99.90
59999;DHT22;45859;51.378;6.736;2023-01-20T15:51:12;2.90;99.90
59999;DHT22;45859;51.378;6.736;2023-01-20T15:53:39;2.90;99.90
59999;DHT22;45859;51.378;6.736;2023-01-20T15:56:05;2.80;99.90
59999;DHT22;45859;51.378;6.736;2023-01-20T15:58:31;2.90;99.90
59999;DHT22;45859;51.378;6.736;2023-01-20T16:00:58;2.90;99.90
59999;DHT22;45859;51.378;6.736;2023-01-20T16:03:25;2.80;99.90
59999;DHT22;45859;51.378;6.736;2023-01-20T16:05:52;2.80;99.90
59999;DHT22;45859;51.378;6.736;2023-01-20T16:08:20;2.80;99.90
59999;DHT22;45859;51.378;6.736;2023-01-20T16:10:47;2.80;99.90
59999;DHT22;45859;51.378;6.736;2023-01-20T16:13:13;2.80;99.90
59999;DHT22;45859;51.378;6.736;2023-01-20T16:15:40;2.80;99.90
59999;DHT22;45859;51.378;6.736;2023-01-20T16:18:15;2.70;99.90
59999;DHT22;45859;51.378;6.736;2023-01-20T16:20:45;2.70;99.90
59999;DHT22;45859;51.378;6.736;2023-01-20T16:23:12;2.70;99.90
59999;DHT22;45859;51.378;6.736;2023-01-20T16:25:38;2.70;99.90
59999;DHT22;45859;51.378;6.736;2023-01-20T16:28:18;2.70;99.90
59999;DHT22;45859;51.378;6.736;2023-01-20T16:30:52;2.70;99.90
59999;DHT22;45859;51.378;6.736;2023-01-20T16:33:26;2.60;99.90
59999;DHT22;45859;51.378;6.736;2023-01-20T16:35:55;2.60;99.90
59999;DHT22;45859;51.378;6.736;2023-01-20T16:38:23;2.50;99.90
59999;DHT22;45859;51.378;6.736;2023-01-20T16:41:01;2.50;99.90
59999;DHT22;45859;51.378;6.736;2023-01-20T16:43:27;2.40;99.90
59999;DHT22;45859;51.378;6.736;2023-01-20T16:45:54;2.30;99.90
59999;DHT22;45859;51.378;6.736;2023-01-20T16:48:21;2.30;99.90
59999;DHT22;45859;51.378;6.736;2023-01-20T16:50:48;2.20;99.90
59999;DHT22;45859;51.378;6.736;2023-01-20T16:53:15;2.10;99.90
59999;DHT22;45859;51.378;6.736;2023-01-20T16:55:45;2.10;99.90
59999;DHT22;45859;51.378;6.736;2023-01-20T16:58:12;2.10;99.90
59999;DHT22;45859;51.378;6.736;2023-01-20T17:00:39;2.10;99.90
59999;DHT22;45859;51.378;6.736;2023-01-20T17:03:05;1.90;99.90
59999;DHT22;45859;51.378;6.736;2023-01-20T17:05:31;1.90;99.90
59999;DHT22;45859;51.378;6.736;2023-01-20T17:07:56;1.90;99.90
59999;DHT22;45859;51.378;6.736;2023-01-20T17:10:24;1.80;99.90
59999;DHT22;45859;51.378;6.736;2023-01-20T17:12:53;1.80;99.90
59999;DHT22;45859;51.378;6.736;2023-01-20T17:15:20;1.70;99.90
59999;DHT22;45859;51.378;6.736;2023-01-20T17:17:50;1.70;99.90
59999;DHT22;45859;51.378;6.736;2023-01-20T17:20:19;1.70;99.90
59999;DHT22;45859;51.378;6.736;2023-01-20T17:22:45;1.70;99.90
59999;DHT22;45859;51.378;6.736;2023-01-20T17:25:11;1.60;99.90
59999;DHT22;45859;51.378;6.736;2023-01-20T17:27:37;1.60;99.90
59999;DHT22;45859;51.378;6.736;2023-01-20T17:30:05;1.50;99.90
59999;DHT22;45859;51.378;6.736;2023-01-20T17:32:33;1.50;99.90
59999;DHT22;45859;51.378;6.736;2023-01-20T17:34:58;1.40;99.90
59999;DHT22;45859;51.378;6.736;2023-01-20T17:37:24;1.30;99.90
59999;DHT22;45859;51.378;6.736;2023-01-20T17:39:50;1.20;99.90
59999;DHT22;45859;51.378;6.736;2023-01-20T17:42:15;1.20;99.90
59999;DHT22;45859;51.378;6.736;2023-01-20T17:44:41;1.10;99.90
59999;DHT22;45859;51.378;6.736;2023-01-20T17:47:07;1.00;99.90
59999;DHT22;45859;51.378;6.736;2023-01-20T17:49:33;1.00;99.90
59999;DHT22;45859;51.378;6.736;2023-01-20T17:51:58;1.00;99.90
59999;DHT22;45859;51.378;6.736;2023-01-20T17:54:24;0.90;99.90
59999;DHT22;45859;51.378;6.736;2023-01-20T17:56:49;0.90;99.90
59999;DHT22;45859;51.378;6.736;2023-01-20T17:59:15;0.90;99.90
59999;DHT22;45859;51.378;6.736;2023-01-20T18:01:41;0.80;99.90
59999;DHT22;45859;51.378;6.736;2023-01-20T18:04:07;0.80;99.90